KBKT/BKT METAR and TAF weather

Enter ICAO airport designator
Station Type Date Time Source
KBKT METAR 2019/10/18 11:35 UTC NOAA

KBKT 181135Z AUTO 29003KT 10SM CLR 03/03 A2999 RMK AO1 T00260026


Station Type Date Time Source
KBKT Decoded METAR 2019/10/18 11:35 UTC NOAA

Ft. Pickett / Blackstone, VA, United States (KBKT) 37-05N 077-57W
Oct 18, 2019 - 07:35 AM EDT / 2019.10.18 1135 UTC
Wind: from the WNW (290 degrees) at 3 MPH (3 KT):0
Visibility: 10 mile(s):0
Sky conditions: clear
Temperature: 36.7 F (2.6 C)
Dew Point: 36.7 F (2.6 C)
Relative Humidity: 100%
Pressure (altimeter): 29.99 in. Hg (1015 hPa)
ob: KBKT 181135Z AUTO 29003KT 10SM CLR 03/03 A2999 RMK AO1 T00260026
cycle: 11

Station Type Date Time Source
KBKT TAF UTC NOAA

Error!

Example: see airport list